Time;durP1;ratioP1;P1;durP2;ratioP2;P2;SDS_P1;SDS_P2;PMS_P1;PMS_P2;Temp;Humidity;BMP_temperature;BMP_pressure;BME280_temperature;BME280_humidity;BME280_pressure;Samples;Min_cycle;Max_cycle;Signal;HPM_P1;HPM_P2
2023/12/17 00:03:46;;;;;;;9.90;5.90;;;;;;;8.42;100.00;101974.20;178025;1257;59811;-87
2023/12/17 00:07:50;;;;;;;7.70;5.10;;;;;;;8.43;100.00;101976.13;178095;1257;46024;-88
2023/12/17 00:11:53;;;;;;;9.60;4.60;;;;;;;8.44;100.00;101965.13;177815;1257;45959;-85
2023/12/17 00:15:56;;;;;;;8.40;5.40;;;;;;;8.44;100.00;101947.61;177296;1257;46013;-87
2023/12/17 00:20:00;;;;;;;14.70;5.00;;;;;;;8.47;100.00;101954.03;177991;1257;46185;-87
2023/12/17 00:24:04;;;;;;;6.30;4.40;;;;;;;8.48;100.00;101960.88;177126;1258;60336;-88
2023/12/17 00:28:07;;;;;;;8.20;5.80;;;;;;;8.47;100.00;101963.95;178150;1257;46022;-88
2023/12/17 00:32:11;;;;;;;9.00;5.10;;;;;;;8.45;100.00;101957.85;178232;1257;46073;-87
2023/12/17 00:36:14;;;;;;;9.40;5.60;;;;;;;8.48;100.00;101963.91;178040;1257;46130;-85
2023/12/17 00:40:17;;;;;;;9.50;6.40;;;;;;;8.49;100.00;101970.59;178165;1256;46131;-87
2023/12/17 00:44:21;;;;;;;19.10;4.90;;;;;;;8.40;100.00;101969.89;177771;1257;59549;-87
2023/12/17 00:48:24;;;;;;;17.40;5.80;;;;;;;8.42;100.00;101963.62;178016;1256;46094;-87
2023/12/17 00:52:28;;;;;;;8.40;5.40;;;;;;;8.38;100.00;101953.21;177305;1257;45968;-87
2023/12/17 00:56:31;;;;;;;7.00;5.20;;;;;;;8.37;100.00;101951.98;177338;1257;46130;-87
2023/12/17 01:00:35;;;;;;;7.50;5.50;;;;;;;8.40;100.00;101962.29;178061;1257;46177;-87
2023/12/17 01:04:47;;;;;;;12.00;4.60;;;;;;;8.38;100.00;101963.77;178096;1257;59309;-86
2023/12/17 01:08:50;;;;;;;15.40;5.40;;;;;;;8.42;100.00;101950.16;177613;1257;46083;-85
2023/12/17 01:12:54;;;;;;;14.40;6.20;;;;;;;8.48;100.00;101942.54;177535;1257;45512;-87
2023/12/17 01:16:57;;;;;;;9.20;5.80;;;;;;;8.48;100.00;101930.30;177426;1261;46071;-87
2023/12/17 01:21:00;;;;;;;6.00;4.60;;;;;;;8.44;100.00;101938.95;178125;1257;46007;-87
2023/12/17 01:25:05;;;;;;;6.90;4.60;;;;;;;8.42;100.00;101945.93;177654;1257;58266;-88
2023/12/17 01:29:09;;;;;;;9.90;5.50;;;;;;;8.48;100.00;101957.55;178127;1257;45973;-87
2023/12/17 01:33:12;;;;;;;9.00;5.70;;;;;;;8.50;100.00;101957.47;177553;1257;46097;-88
2023/12/17 01:37:15;;;;;;;6.30;4.30;;;;;;;8.50;100.00;101951.96;178022;1258;46050;-87
2023/12/17 01:41:18;;;;;;;11.50;5.70;;;;;;;8.48;100.00;101948.88;178274;1258;46121;-88
2023/12/17 01:45:22;;;;;;;9.60;5.20;;;;;;;8.46;100.00;101945.58;178579;1257;59593;-85
2023/12/17 01:49:25;;;;;;;13.90;6.00;;;;;;;8.45;100.00;101952.55;177873;1260;45966;-86
2023/12/17 01:53:29;;;;;;;5.90;4.50;;;;;;;8.42;100.00;101960.10;177658;1257;46097;-87
2023/12/17 01:57:32;;;;;;;16.30;5.80;;;;;;;8.39;100.00;101973.63;177901;1260;46581;-85
2023/12/17 02:01:36;;;;;;;6.90;5.10;;;;;;;8.36;100.00;101986.35;177971;1257;45930;-87
2023/12/17 02:05:39;;;;;;;31.40;6.00;;;;;;;8.36;100.00;101972.04;177807;1257;59532;-87
2023/12/17 02:09:43;;;;;;;7.10;5.90;;;;;;;8.34;100.00;101960.08;177726;1257;46110;-87
2023/12/17 02:13:47;;;;;;;8.60;5.00;;;;;;;8.30;100.00;101962.57;178076;1257;45361;-87
2023/12/17 02:17:50;;;;;;;9.10;5.60;;;;;;;8.28;100.00;101958.94;177720;1256;44707;-85
2023/12/17 02:21:54;;;;;;;12.30;6.80;;;;;;;8.19;100.00;101961.46;178096;1257;46248;-87
2023/12/17 02:25:57;;;;;;;12.30;6.30;;;;;;;8.20;100.00;101972.41;178607;1257;58249;-88
2023/12/17 02:30:01;;;;;;;9.10;5.70;;;;;;;8.17;100.00;101975.17;178119;1257;46079;-87
2023/12/17 02:34:04;;;;;;;9.70;5.90;;;;;;;8.18;100.00;101975.14;178063;1258;46311;-87
2023/12/17 02:38:08;;;;;;;11.30;7.10;;;;;;;8.19;100.00;101982.52;177661;1258;46001;-88
2023/12/17 02:42:12;;;;;;;14.00;7.30;;;;;;;8.18;100.00;101974.27;177835;1256;46039;-87
2023/12/17 02:46:16;;;;;;;11.40;7.00;;;;;;;8.17;100.00;101955.73;178087;1257;59257;-86
2023/12/17 02:50:19;;;;;;;9.80;5.90;;;;;;;8.17;100.00;101961.58;177659;1256;46005;-88
2023/12/17 02:54:23;;;;;;;9.50;5.70;;;;;;;8.14;100.00;101963.98;177543;1256;45978;-88
2023/12/17 02:58:26;;;;;;;18.10;5.10;;;;;;;8.11;100.00;101960.04;178180;1256;45493;-86
2023/12/17 03:02:30;;;;;;;10.90;5.70;;;;;;;8.13;100.00;101955.73;178790;1256;46058;-86
2023/12/17 03:06:33;;;;;;;9.30;5.30;;;;;;;8.11;100.00;101951.04;177895;1257;58244;-87
2023/12/17 03:10:42;;;;;;;13.30;5.40;;;;;;;8.08;100.00;101953.85;178213;1257;46218;-87
2023/12/17 03:14:45;;;;;;;10.20;6.30;;;;;;;8.07;100.00;101957.05;179070;1256;45963;-89
2023/12/17 03:18:49;;;;;;;5.20;4.50;;;;;;;8.03;100.00;101954.40;177874;1257;45972;-88
2023/12/17 03:22:53;;;;;;;7.80;5.80;;;;;;;8.00;100.00;101949.05;178545;1260;46184;-86
2023/12/17 03:26:56;;;;;;;7.10;5.00;;;;;;;7.96;100.00;101943.96;178755;1258;59574;-87
2023/12/17 03:31:00;;;;;;;11.70;5.60;;;;;;;7.93;100.00;101934.02;178356;1257;46101;-89
2023/12/17 03:35:04;;;;;;;12.20;6.20;;;;;;;7.85;100.00;101929.92;178468;1258;45927;-88
2023/12/17 03:39:08;;;;;;;12.60;7.60;;;;;;;7.76;100.00;101924.29;177385;1257;45969;-88
2023/12/17 03:43:11;;;;;;;15.50;7.30;;;;;;;7.70;100.00;101941.52;177768;1257;46052;-87
2023/12/17 03:47:15;;;;;;;23.90;9.60;;;;;;;7.65;100.00;101942.78;178368;1256;58231;-88
2023/12/17 03:51:18;;;;;;;11.20;8.40;;;;;;;7.57;100.00;101945.40;177965;1256;46231;-87
2023/12/17 03:55:22;;;;;;;11.80;6.60;;;;;;;7.53;100.00;101951.58;178094;1258;45979;-87
2023/12/17 03:59:25;;;;;;;9.10;6.00;;;;;;;7.48;100.00;101947.77;177655;1257;46021;-88
2023/12/17 04:03:29;;;;;;;10.40;6.90;;;;;;;7.43;100.00;101950.06;177764;1256;46130;-86
2023/12/17 04:07:32;;;;;;;10.20;6.70;;;;;;;7.42;100.00;101952.03;177656;1258;60279;-87
2023/12/17 04:11:36;;;;;;;15.70;8.00;;;;;;;7.40;100.00;101942.45;177858;1258;46058;-89
2023/12/17 04:15:39;;;;;;;9.70;5.50;;;;;;;7.34;100.00;101937.39;177898;1259;45917;-88
2023/12/17 04:19:42;;;;;;;12.00;7.90;;;;;;;7.29;100.00;101936.52;177470;1259;46124;-88
2023/12/17 04:23:46;;;;;;;19.10;10.00;;;;;;;7.22;100.00;101944.59;177536;1257;46025;-87
2023/12/17 04:27:50;;;;;;;16.30;7.80;;;;;;;7.18;100.00;101962.55;178470;1256;59037;-87
2023/12/17 04:31:53;;;;;;;16.10;10.90;;;;;;;7.18;100.00;101968.92;177954;1257;45991;-86
2023/12/17 04:35:57;;;;;;;19.90;12.60;;;;;;;7.21;100.00;101963.86;177839;1258;46101;-86
2023/12/17 04:40:01;;;;;;;18.60;12.00;;;;;;;7.19;100.00;101956.88;177651;1257;47669;-87
2023/12/17 04:44:05;;;;;;;17.30;10.60;;;;;;;7.13;100.00;101958.17;177519;1260;45992;-87
2023/12/17 04:48:08;;;;;;;18.10;10.00;;;;;;;7.09;100.00;101968.55;177682;1256;59199;-86
2023/12/17 04:52:12;;;;;;;19.00;9.20;;;;;;;7.10;100.00;101966.08;177640;1258;46001;-88
2023/12/17 04:56:16;;;;;;;11.90;7.50;;;;;;;7.05;100.00;101960.43;177975;1256;46128;-88
2023/12/17 05:00:19;;;;;;;16.50;9.00;;;;;;;7.03;100.00;101957.54;177960;1257;46245;-88
2023/12/17 05:04:23;;;;;;;11.60;7.10;;;;;;;7.00;100.00;101953.74;177793;1260;46115;-88
2023/12/17 05:08:27;;;;;;;6.60;5.80;;;;;;;7.00;100.00;101961.17;177657;1257;59559;-87
2023/12/17 05:12:30;;;;;;;13.30;7.00;;;;;;;6.98;100.00;101967.75;178358;1256;46561;-87
2023/12/17 05:16:34;;;;;;;8.40;5.40;;;;;;;6.97;100.00;101981.39;178259;1256;44743;-87
2023/12/17 05:20:38;;;;;;;7.20;4.80;;;;;;;6.97;100.00;101983.87;178221;1259;45688;-86
2023/12/17 05:24:41;;;;;;;11.80;5.90;;;;;;;6.99;100.00;101989.95;177849;1257;46112;-87
2023/12/17 05:28:45;;;;;;;18.30;5.50;;;;;;;7.01;100.00;102000.10;177921;1256;58209;-88
2023/12/17 05:32:49;;;;;;;8.00;5.50;;;;;;;7.00;100.00;102006.14;178285;1256;46056;-87
2023/12/17 05:36:53;;;;;;;12.80;6.40;;;;;;;6.99;100.00;102011.14;178368;1256;45991;-89
2023/12/17 05:40:57;;;;;;;11.20;7.00;;;;;;;6.98;100.00;102020.00;178274;1259;46116;-87
2023/12/17 05:45:01;;;;;;;11.90;6.70;;;;;;;6.87;100.00;102017.21;177762;1256;46039;-87
2023/12/17 05:49:04;;;;;;;11.20;5.30;;;;;;;6.80;100.00;102010.98;177930;1261;60222;-86
2023/12/17 05:53:09;;;;;;;10.00;7.30;;;;;;;6.74;100.00;102012.29;177943;1261;46218;-88
2023/12/17 05:57:13;;;;;;;9.30;7.20;;;;;;;6.73;100.00;102009.14;177640;1257;44401;-86
2023/12/17 06:01:17;;;;;;;12.90;8.00;;;;;;;6.75;100.00;102010.84;178520;1258;46085;-89
2023/12/17 06:05:20;;;;;;;8.00;6.20;;;;;;;6.75;100.00;102013.64;178379;1256;45988;-86
2023/12/17 06:09:25;;;;;;;8.80;6.00;;;;;;;6.73;100.00;102017.23;178189;1256;59637;-88
2023/12/17 06:13:29;;;;;;;10.30;5.20;;;;;;;6.74;100.00;102016.83;177548;1259;45965;-86
2023/12/17 06:17:33;;;;;;;19.00;8.10;;;;;;;6.82;100.00;102019.89;178241;1259;46218;-88
2023/12/17 06:21:37;;;;;;;13.60;7.10;;;;;;;6.88;100.00;102020.20;178402;1256;46566;-87
2023/12/17 06:25:41;;;;;;;15.60;6.00;;;;;;;6.85;100.00;102029.63;178139;1261;46449;-87
2023/12/17 06:29:46;;;;;;;9.90;4.80;;;;;;;6.92;100.00;102041.55;177753;1257;60187;-86
2023/12/17 06:33:53;;;;;;;13.10;7.20;;;;;;;6.92;100.00;102036.28;178484;1259;46026;-88
2023/12/17 06:37:57;;;;;;;14.90;6.90;;;;;;;6.92;100.00;102039.80;177911;1258;46050;-88
2023/12/17 06:42:01;;;;;;;11.60;8.10;;;;;;;6.93;100.00;102040.28;178966;1260;46115;-87
2023/12/17 06:46:06;;;;;;;12.40;6.70;;;;;;;6.90;100.00;102038.80;178040;1258;46123;-85
2023/12/17 06:50:11;;;;;;;10.40;8.00;;;;;;;6.90;100.00;102041.30;178344;1257;60064;-87
2023/12/17 06:54:15;;;;;;;12.30;7.60;;;;;;;6.92;100.00;102031.16;178702;1258;46081;-89
2023/12/17 06:58:20;;;;;;;7.30;5.20;;;;;;;6.96;100.00;102022.87;177941;1261;46188;-88
2023/12/17 07:02:24;;;;;;;19.90;5.90;;;;;;;7.03;100.00;102020.14;178539;1258;46129;-88
2023/12/17 07:06:27;;;;;;;9.50;6.50;;;;;;;7.06;100.00;102015.77;178753;1256;46132;-87
2023/12/17 07:10:31;;;;;;;10.80;6.70;;;;;;;7.06;100.00;102012.45;178796;1256;60411;-87
2023/12/17 07:14:35;;;;;;;14.40;6.60;;;;;;;7.14;100.00;102015.14;178284;1258;43938;-85
2023/12/17 07:18:39;;;;;;;9.70;7.40;;;;;;;7.26;100.00;102016.05;177544;1258;46099;-89
2023/12/17 07:22:43;;;;;;;12.60;7.30;;;;;;;7.26;100.00;102011.27;178484;1256;45968;-86
2023/12/17 07:26:48;;;;;;;10.50;6.40;;;;;;;7.36;100.00;102013.04;178054;1257;45989;-88
2023/12/17 07:30:52;;;;;;;8.20;5.20;;;;;;;7.36;100.00;102008.45;178342;1261;59307;-86
2023/12/17 07:34:56;;;;;;;6.90;5.40;;;;;;;7.43;100.00;102000.03;178059;1257;46119;-88
2023/12/17 07:39:00;;;;;;;7.80;5.60;;;;;;;7.48;100.00;102018.38;177547;1258;46062;-88
2023/12/17 07:43:03;;;;;;;16.70;5.40;;;;;;;7.44;100.00;102026.63;178226;1256;46131;-87
2023/12/17 07:47:10;;;;;;;14.00;6.90;;;;;;;7.45;100.00;102027.14;177755;1256;45965;-84
2023/12/17 07:51:14;;;;;;;11.30;5.50;;;;;;;7.36;100.00;102032.06;178996;1260;59162;-88
2023/12/17 07:55:18;;;;;;;10.70;5.90;;;;;;;7.39;100.00;102033.38;178726;1259;44199;-89
2023/12/17 07:59:26;;;;;;;11.60;4.80;;;;;;;7.47;100.00;102047.89;180456;1258;44668;-86
2023/12/17 08:03:30;;;;;;;10.10;5.70;;;;;;;7.43;100.00;102052.64;179550;1256;46084;-89
2023/12/17 08:07:39;;;;;;;17.10;5.70;;;;;;;7.46;100.00;102048.81;179964;1259;46126;-90
2023/12/17 08:11:44;;;;;;;10.30;5.00;;;;;;;7.43;100.00;102048.75;179440;1257;60258;-90
2023/12/17 08:15:48;;;;;;;11.80;6.80;;;;;;;7.42;100.00;102055.31;177649;1260;46482;-87
2023/12/17 08:19:53;;;;;;;9.30;6.70;;;;;;;7.46;100.00;102054.80;178189;1257;45933;-88
2023/12/17 08:23:57;;;;;;;13.70;5.10;;;;;;;7.50;100.00;102063.85;177998;1257;46110;-89
2023/12/17 08:28:00;;;;;;;7.10;4.90;;;;;;;7.43;100.00;102059.36;178146;1260;46002;-87
2023/12/17 08:32:04;;;;;;;5.80;4.50;;;;;;;7.40;100.00;102066.71;178425;1259;58332;-89
2023/12/17 08:36:08;;;;;;;9.80;5.10;;;;;;;7.45;100.00;102059.42;178384;1256;45918;-90
2023/12/17 08:40:12;;;;;;;6.00;4.00;;;;;;;7.49;100.00;102064.58;178556;1257;45987;-89
2023/12/17 08:44:22;;;;;;;14.20;6.00;;;;;;;7.53;100.00;102067.77;178385;1259;46123;-88
2023/12/17 08:48:26;;;;;;;10.30;5.60;;;;;;;7.52;100.00;102072.23;177976;1257;45991;-89
2023/12/17 08:52:32;;;;;;;14.50;7.40;;;;;;;7.57;100.00;102064.96;178612;1259;59314;-85
2023/12/17 08:56:36;;;;;;;8.60;5.40;;;;;;;7.52;100.00;102060.42;177775;1260;302367;-87
2023/12/17 09:00:40;;;;;;;7.10;5.50;;;;;;;7.56;100.00;102043.11;177966;1257;46187;-87
2023/12/17 09:04:44;;;;;;;7.50;4.70;;;;;;;7.62;100.00;102030.66;179160;1257;46020;-87
2023/12/17 09:08:47;;;;;;;7.50;5.10;;;;;;;7.69;100.00;102021.55;179063;1260;44092;-88
2023/12/17 09:12:51;;;;;;;12.40;6.30;;;;;;;7.78;100.00;102024.39;178290;1261;58234;-86
2023/12/17 09:16:56;;;;;;;11.10;6.20;;;;;;;7.81;100.00;102029.01;178429;1258;46021;-86
2023/12/17 09:20:59;;;;;;;11.00;8.00;;;;;;;7.80;100.00;102021.79;178876;1260;44476;-88
2023/12/17 09:25:04;;;;;;;11.40;7.10;;;;;;;7.82;100.00;102029.82;179099;1257;46046;-87
2023/12/17 09:29:07;;;;;;;14.30;7.10;;;;;;;7.88;100.00;102035.23;178622;1261;46018;-87
2023/12/17 09:33:12;;;;;;;15.90;6.80;;;;;;;7.91;100.00;102035.67;178207;1258;59283;-87
2023/12/17 09:37:17;;;;;;;10.30;6.20;;;;;;;7.91;100.00;102042.20;178904;1258;46087;-87
2023/12/17 09:41:20;;;;;;;9.80;5.50;;;;;;;7.95;100.00;102046.79;178375;1258;46124;-88
2023/12/17 09:45:24;;;;;;;8.90;4.90;;;;;;;7.97;100.00;102042.82;178256;1256;44295;-85
2023/12/17 09:49:28;;;;;;;10.60;5.10;;;;;;;7.96;100.00;102055.75;178202;1258;45995;-86
2023/12/17 09:53:35;;;;;;;12.80;5.80;;;;;;;7.98;100.00;102040.31;178457;1258;58313;-86
2023/12/17 09:57:39;;;;;;;9.40;4.00;;;;;;;8.00;100.00;102035.11;179056;1257;46470;-87
2023/12/17 10:01:43;;;;;;;7.50;4.90;;;;;;;8.01;100.00;102035.40;178800;1256;46066;-86
2023/12/17 10:05:51;;;;;;;7.20;6.40;;;;;;;7.97;100.00;102035.23;178210;1257;46128;-87
2023/12/17 10:09:55;;;;;;;10.00;6.70;;;;;;;8.03;100.00;102049.45;178327;1259;46149;-87
2023/12/17 10:14:00;;;;;;;7.90;5.10;;;;;;;8.07;100.00;102035.52;178399;1260;59544;-86
2023/12/17 10:18:04;;;;;;;5.90;3.80;;;;;;;8.07;100.00;102033.02;178282;1262;46109;-86
2023/12/17 10:22:09;;;;;;;7.90;5.70;;;;;;;8.08;100.00;102033.20;178375;1260;45985;-88
2023/12/17 10:26:13;;;;;;;7.80;5.20;;;;;;;8.09;100.00;102014.05;177989;1257;47105;-86
2023/12/17 10:30:18;;;;;;;6.30;4.20;;;;;;;8.11;100.00;101997.52;179353;1259;46207;-89
2023/12/17 10:34:25;;;;;;;7.40;3.80;;;;;;;8.12;100.00;102002.23;179593;1262;59244;-90
2023/12/17 10:38:31;;;;;;;5.80;4.20;;;;;;;8.12;100.00;102002.27;179154;1260;46006;-87
2023/12/17 10:42:38;;;;;;;6.30;5.00;;;;;;;8.13;100.00;102009.30;179068;1261;46053;-90
2023/12/17 10:47:09;;;;;;;6.10;3.80;;;;;;;8.14;100.00;101998.81;179400;1260;46181;-86
2023/12/17 10:51:25;;;;;;;8.60;5.30;;;;;;;8.09;100.00;101997.09;178856;1261;45977;-88
2023/12/17 10:55:42;;;;;;;9.90;5.20;;;;;;;8.06;100.00;102001.11;179116;1259;59215;-89
2023/12/17 10:59:50;;;;;;;10.20;4.70;;;;;;;7.99;100.00;101998.74;178457;1258;46186;-89
2023/12/17 11:03:55;;;;;;;12.20;6.70;;;;;;;8.12;100.00;101998.89;179550;1258;44391;-90
2023/12/17 11:07:59;;;;;;;8.70;6.30;;;;;;;8.12;100.00;102007.54;180908;1254;43921;-81
2023/12/17 11:12:06;;;;;;;6.20;5.10;;;;;;;8.17;100.00;102001.34;181327;1254;43912;-82
2023/12/17 11:16:24;;;;;;;9.20;6.90;;;;;;;8.16;100.00;101979.13;181364;1254;59608;-82
2023/12/17 11:20:48;;;;;;;14.20;5.50;;;;;;;8.13;100.00;101976.73;181416;1254;44242;-82
2023/12/17 11:24:59;;;;;;;8.20;6.30;;;;;;;8.09;100.00;101970.92;181432;1254;43945;-82
2023/12/17 11:29:32;;;;;;;10.90;5.60;;;;;;;8.08;100.00;101963.89;181360;1254;43880;-82
2023/12/17 11:33:37;;;;;;;6.20;4.00;;;;;;;8.20;100.00;101971.86;181457;1254;43842;-82
2023/12/17 11:37:43;;;;;;;11.40;7.00;;;;;;;8.30;100.00;101975.48;181427;1254;59663;-81
2023/12/17 11:41:46;;;;;;;8.20;6.20;;;;;;;8.39;100.00;101968.54;181724;1254;44099;-81
2023/12/17 11:45:50;;;;;;;10.40;7.00;;;;;;;8.39;100.00;101959.35;181688;1254;44004;-82
2023/12/17 11:50:02;;;;;;;12.30;6.60;;;;;;;8.46;100.00;101959.05;181469;1254;44031;-82
2023/12/17 11:54:06;;;;;;;8.70;5.90;;;;;;;8.57;100.00;101963.68;181475;1254;43965;-83
2023/12/17 11:58:10;;;;;;;11.30;5.80;;;;;;;8.69;100.00;101950.39;181461;1254;59511;-83
2023/12/17 12:02:16;;;;;;;11.20;5.80;;;;;;;8.85;100.00;101936.56;181592;1254;45046;-83
2023/12/17 12:06:21;;;;;;;10.30;4.60;;;;;;;8.95;100.00;101930.60;181676;1254;43821;-83
2023/12/17 12:10:25;;;;;;;10.80;4.90;;;;;;;9.05;100.00;101922.52;181481;1254;44227;-83
2023/12/17 12:14:28;;;;;;;11.10;5.50;;;;;;;9.10;100.00;101914.44;181540;1254;43811;-81
2023/12/17 12:18:31;;;;;;;8.60;5.40;;;;;;;9.10;99.76;101919.80;181409;1254;59248;-81
2023/12/17 12:22:35;;;;;;;11.30;5.00;;;;;;;9.11;99.86;101913.36;181504;1254;43863;-82
2023/12/17 12:26:39;;;;;;;9.20;4.60;;;;;;;9.10;99.84;101910.92;181525;1254;43930;-81
2023/12/17 12:30:42;;;;;;;7.80;5.20;;;;;;;9.12;99.83;101908.35;181335;1254;44066;-82
2023/12/17 12:34:47;;;;;;;10.60;4.60;;;;;;;9.16;100.00;101903.73;181449;1254;44056;-82
2023/12/17 12:39:01;;;;;;;9.60;5.60;;;;;;;9.22;100.00;101893.35;181455;1254;58065;-82
2023/12/17 12:43:04;;;;;;;10.90;5.10;;;;;;;9.25;100.00;101885.20;181507;1254;44247;-82
2023/12/17 12:47:07;;;;;;;8.90;4.90;;;;;;;9.28;100.00;101876.05;181421;1254;44252;-81
2023/12/17 12:51:11;;;;;;;15.00;6.10;;;;;;;9.35;100.00;101874.64;181565;1254;44588;-81
2023/12/17 12:55:15;;;;;;;14.00;6.00;;;;;;;9.41;100.00;101862.83;181448;1254;44033;-81
2023/12/17 12:59:19;;;;;;;5.80;4.30;;;;;;;9.46;99.80;101857.80;181826;1254;59994;-81
2023/12/17 13:03:27;;;;;;;7.70;5.40;;;;;;;9.44;99.74;101862.99;181721;1254;44111;-81
2023/12/17 13:07:32;;;;;;;6.20;4.40;;;;;;;9.46;99.77;101857.05;181567;1254;44183;-80
2023/12/17 13:11:36;;;;;;;8.20;4.20;;;;;;;9.52;99.18;101861.01;181511;1256;44177;-81
2023/12/17 13:15:39;;;;;;;7.20;4.50;;;;;;;9.53;99.68;101863.10;181568;1254;44059;-80
2023/12/17 13:19:42;;;;;;;6.90;5.20;;;;;;;9.54;98.96;101859.27;181392;1254;59327;-81
2023/12/17 13:23:49;;;;;;;7.80;4.50;;;;;;;9.52;98.61;101847.89;181470;1255;44198;-80
2023/12/17 13:27:53;;;;;;;14.00;4.20;;;;;;;9.52;98.85;101846.67;181610;1254;43794;-82
2023/12/17 13:31:56;;;;;;;9.00;5.50;;;;;;;9.49;99.57;101851.06;181425;1254;44077;-80
2023/12/17 13:35:59;;;;;;;13.90;6.10;;;;;;;9.50;99.84;101846.60;181758;1254;44027;-81
2023/12/17 13:40:04;;;;;;;6.30;4.60;;;;;;;9.42;99.95;101841.66;181491;1258;59284;-81
2023/12/17 13:44:08;;;;;;;7.50;4.50;;;;;;;9.43;100.00;101834.20;181534;1254;44233;-81
2023/12/17 13:48:13;;;;;;;7.10;5.80;;;;;;;9.40;100.00;101827.29;181351;1254;44128;-80
2023/12/17 13:52:16;;;;;;;7.80;4.80;;;;;;;9.36;100.00;101822.52;181399;1254;45543;-80
2023/12/17 13:56:20;;;;;;;7.80;4.40;;;;;;;9.38;100.00;101817.43;181417;1254;44055;-80
2023/12/17 14:00:26;;;;;;;9.20;5.00;;;;;;;9.38;100.00;101812.84;181468;1254;58053;-80
2023/12/17 14:04:30;;;;;;;10.50;5.20;;;;;;;9.37;99.94;101812.90;181669;1254;43800;-80
2023/12/17 14:08:33;;;;;;;11.00;5.60;;;;;;;9.31;100.00;101811.29;181487;1254;43898;-80
2023/12/17 14:12:39;;;;;;;8.40;5.40;;;;;;;9.30;100.00;101809.36;181399;1254;44153;-80
2023/12/17 14:16:43;;;;;;;8.30;4.40;;;;;;;9.30;100.00;101806.20;181404;1254;44009;-80
2023/12/17 14:20:46;;;;;;;6.70;5.60;;;;;;;9.20;100.00;101811.86;181811;1254;59613;-80
2023/12/17 14:24:50;;;;;;;9.00;5.00;;;;;;;8.90;100.00;101815.64;181424;1254;43986;-80
2023/12/17 14:28:53;;;;;;;7.30;4.80;;;;;;;8.65;100.00;101817.75;181579;1255;44052;-80
2023/12/17 14:32:57;;;;;;;10.70;6.10;;;;;;;8.62;100.00;101821.08;181514;1254;44056;-80
2023/12/17 14:37:01;;;;;;;27.60;16.10;;;;;;;8.50;100.00;101825.17;181460;1256;44095;-83
2023/12/17 14:41:04;;;;;;;53.90;32.10;;;;;;;8.40;100.00;101832.73;181643;1254;57882;-83
2023/12/17 14:45:08;;;;;;;24.10;14.10;;;;;;;8.33;100.00;101825.46;181623;1254;43890;-83
2023/12/17 14:49:11;;;;;;;10.00;6.90;;;;;;;8.30;100.00;101815.36;181724;1254;43937;-83
2023/12/17 14:53:15;;;;;;;10.10;6.20;;;;;;;8.27;100.00;101819.55;181589;1254;44043;-83
2023/12/17 14:57:19;;;;;;;14.10;7.40;;;;;;;8.27;100.00;101823.10;181524;1255;44138;-83
2023/12/17 15:01:25;;;;;;;9.50;7.60;;;;;;;8.24;100.00;101824.96;181539;1254;57389;-83
2023/12/17 15:05:38;;;;;;;18.40;12.60;;;;;;;8.22;100.00;101828.98;181826;1254;43871;-83
2023/12/17 15:09:43;;;;;;;19.00;11.30;;;;;;;8.13;100.00;101821.77;181599;1254;44253;-83
2023/12/17 15:13:46;;;;;;;10.70;7.50;;;;;;;8.00;100.00;101831.02;181792;1254;43767;-83
2023/12/17 15:17:50;;;;;;;14.80;9.70;;;;;;;7.66;100.00;101831.52;181675;1254;44038;-83
2023/12/17 15:21:54;;;;;;;14.50;8.20;;;;;;;7.50;100.00;101826.91;181756;1254;59418;-82
2023/12/17 15:25:57;;;;;;;12.60;8.70;;;;;;;7.50;100.00;101827.81;181521;1254;43963;-81
2023/12/17 15:30:00;;;;;;;12.90;7.90;;;;;;;7.55;100.00;101831.98;181794;1254;43847;-81
2023/12/17 15:34:03;;;;;;;10.60;8.30;;;;;;;7.55;100.00;101824.77;181769;1254;44598;-81
2023/12/17 15:38:06;;;;;;;17.00;10.40;;;;;;;7.60;100.00;101827.87;181813;1254;44245;-81
2023/12/17 15:42:10;;;;;;;33.90;19.30;;;;;;;7.63;100.00;101823.72;181609;1254;59284;-81
2023/12/17 15:46:21;;;;;;;32.10;18.80;;;;;;;7.65;100.00;101822.19;181632;1254;43891;-81
2023/12/17 15:50:24;;;;;;;62.90;33.40;;;;;;;7.68;100.00;101810.74;181771;1254;43843;-82
2023/12/17 15:54:27;;;;;;;69.70;38.30;;;;;;;7.63;100.00;101805.72;181741;1254;44152;-82
2023/12/17 15:58:31;;;;;;;85.80;43.10;;;;;;;7.61;100.00;101807.04;181413;1255;43800;-82
2023/12/17 16:02:34;;;;;;;55.10;30.70;;;;;;;7.63;100.00;101807.45;181453;1256;60479;-81
2023/12/17 16:06:37;;;;;;;43.60;24.10;;;;;;;7.62;100.00;101809.80;181720;1254;44069;-82
2023/12/17 16:10:40;;;;;;;24.80;14.60;;;;;;;7.60;100.00;101803.02;181823;1254;44161;-82
2023/12/17 16:14:44;;;;;;;24.10;12.00;;;;;;;7.52;100.00;101794.15;181516;1254;44407;-82
2023/12/17 16:18:47;;;;;;;26.50;12.10;;;;;;;7.50;100.00;101797.44;181498;1254;45006;-81
2023/12/17 16:22:51;;;;;;;23.10;17.00;;;;;;;7.51;100.00;101796.32;181408;1254;58013;-82
2023/12/17 16:26:54;;;;;;;199.80;104.60;;;;;;;7.44;100.00;101795.93;181641;1253;43984;-81
2023/12/17 16:30:57;;;;;;;137.00;76.00;;;;;;;7.36;100.00;101791.17;181774;1254;44326;-81
2023/12/17 16:35:03;;;;;;;121.70;64.10;;;;;;;7.35;100.00;101794.23;181477;1254;44365;-82
2023/12/17 16:39:09;;;;;;;95.10;50.00;;;;;;;7.33;100.00;101792.00;181393;1255;44051;-82
2023/12/17 16:43:13;;;;;;;89.70;46.70;;;;;;;7.37;100.00;101789.89;181412;1254;59085;-82
2023/12/17 16:47:16;;;;;;;86.50;47.60;;;;;;;7.37;100.00;101789.55;181766;1255;43753;-84
2023/12/17 16:51:19;;;;;;;118.50;59.00;;;;;;;7.39;100.00;101783.27;181394;1256;43774;-82
2023/12/17 16:55:23;;;;;;;103.90;54.00;;;;;;;7.45;100.00;101783.55;181404;1255;43930;-82
2023/12/17 16:59:27;;;;;;;108.30;55.40;;;;;;;7.47;100.00;101776.75;181589;1255;44027;-81
2023/12/17 17:03:34;;;;;;;118.00;58.10;;;;;;;7.45;100.00;101778.06;181405;1254;58294;-81
2023/12/17 17:07:38;;;;;;;72.00;40.20;;;;;;;7.38;100.00;101770.77;181375;1254;44376;-81
2023/12/17 17:11:42;;;;;;;76.90;44.60;;;;;;;7.33;100.00;101765.70;181567;1254;44424;-82
2023/12/17 17:15:46;;;;;;;67.20;45.10;;;;;;;7.28;100.00;101764.36;181480;1254;43891;-82
2023/12/17 17:19:50;;;;;;;64.80;37.60;;;;;;;7.17;100.00;101762.00;181493;1254;43913;-83
2023/12/17 17:23:54;;;;;;;65.60;38.90;;;;;;;7.06;100.00;101758.75;181365;1256;59551;-83
2023/12/17 17:28:01;;;;;;;83.80;47.90;;;;;;;7.02;100.00;101759.30;181137;1254;44474;-87
2023/12/17 17:32:05;;;;;;;75.10;46.30;;;;;;;7.00;100.00;101755.67;181242;1254;44197;-87
2023/12/17 17:36:09;;;;;;;73.70;47.80;;;;;;;6.94;100.00;101755.59;181292;1254;44128;-87
2023/12/17 17:40:13;;;;;;;109.40;69.10;;;;;;;6.83;100.00;101753.21;181236;1254;43942;-86
2023/12/17 17:44:17;;;;;;;144.70;89.00;;;;;;;6.71;100.00;101754.08;181289;1255;59571;-86
2023/12/17 17:48:20;;;;;;;149.90;84.60;;;;;;;6.59;100.00;101753.88;181279;1254;44100;-86
2023/12/17 17:52:24;;;;;;;147.60;75.50;;;;;;;6.49;100.00;101750.39;181274;1255;43853;-88
2023/12/17 17:56:28;;;;;;;102.80;55.90;;;;;;;6.40;100.00;101746.37;181334;1254;43825;-87
2023/12/17 18:00:31;;;;;;;96.10;51.40;;;;;;;6.28;100.00;101743.52;181409;1254;43824;-87
2023/12/17 18:04:35;;;;;;;84.20;52.50;;;;;;;6.13;100.00;101744.07;181345;1254;59540;-86
2023/12/17 18:08:38;;;;;;;68.30;43.70;;;;;;;6.14;100.00;101745.11;181386;1254;43911;-87
2023/12/17 18:12:41;;;;;;;71.40;44.30;;;;;;;6.16;100.00;101742.05;181250;1254;45066;-86
2023/12/17 18:16:45;;;;;;;68.40;42.60;;;;;;;6.16;100.00;101742.94;181243;1254;44139;-87
2023/12/17 18:20:48;;;;;;;95.90;50.10;;;;;;;6.16;100.00;101748.54;181416;1254;44166;-87
2023/12/17 18:24:52;;;;;;;100.80;60.50;;;;;;;6.20;100.00;101746.80;181219;1254;60354;-87
2023/12/17 18:28:55;;;;;;;75.30;46.00;;;;;;;6.30;100.00;101744.83;181304;1254;44019;-88
2023/12/17 18:32:59;;;;;;;75.90;42.00;;;;;;;6.38;100.00;101741.66;181348;1254;44574;-88
2023/12/17 18:37:03;;;;;;;51.80;33.80;;;;;;;6.42;100.00;101734.64;181454;1255;44107;-85